Time;durP1;ratioP1;P1;durP2;ratioP2;P2;SDS_P1;SDS_P2;PMS_P1;PMS_P2;Temp;Humidity;BMP_temperature;BMP_pressure;BME280_temperature;BME280_humidity;BME280_pressure;Samples;Min_cycle;Max_cycle;Signal;HPM_P1;HPM_P2
2023/06/05 00:00:34;;;;;;;5.00;0.80;;;18.50;99.90;;;;;;5053921;28;20197;-90
2023/06/05 00:03:06;;;;;;;3.20;1.00;;;18.50;99.90;;;;;;5034684;28;20205;-91
2023/06/05 00:05:39;;;;;;;4.65;0.95;;;18.50;99.90;;;;;;5042326;28;20196;-91
2023/06/05 00:08:14;;;;;;;5.18;1.35;;;18.50;99.90;;;;;;5042006;28;20608;-91
2023/06/05 00:10:45;;;;;;;1.55;0.60;;;18.50;99.90;;;;;;5049876;28;20185;-90
2023/06/05 00:13:16;;;;;;;7.10;1.08;;;18.60;99.90;;;;;;5043375;28;20182;-90
2023/06/05 00:15:49;;;;;;;1.85;0.68;;;18.60;99.90;;;;;;5056653;28;20189;-90
2023/06/05 00:18:21;;;;;;;4.13;0.80;;;18.70;99.90;;;;;;5058207;28;20209;-87
2023/06/05 00:20:52;;;;;;;2.28;0.70;;;18.70;99.90;;;;;;5052608;28;20212;-91
2023/06/05 00:23:25;;;;;;;2.78;0.95;;;18.80;99.90;;;;;;5036049;28;20200;-92
2023/06/05 00:25:57;;;;;;;4.20;1.20;;;18.80;99.90;;;;;;5034903;28;20197;-90
2023/06/05 00:28:30;;;;;;;3.92;1.00;;;18.90;99.90;;;;;;5035254;28;20259;-90
2023/06/05 00:31:01;;;;;;;2.33;0.70;;;18.90;99.90;;;;;;5032695;28;20654;-90
2023/06/05 00:33:33;;;;;;;5.20;1.08;;;18.90;99.90;;;;;;5054848;28;20201;-91
2023/06/05 00:36:04;;;;;;;2.42;0.70;;;19.00;99.90;;;;;;5053571;28;20660;-92
2023/06/05 00:38:39;;;;;;;4.22;1.05;;;18.90;99.90;;;;;;5069822;28;20208;-91
2023/06/05 00:41:12;;;;;;;5.40;1.15;;;18.90;99.90;;;;;;5056767;28;20303;-90
2023/06/05 00:43:44;;;;;;;5.03;1.10;;;19.00;99.90;;;;;;5056443;28;20217;-91
2023/06/05 00:46:17;;;;;;;3.10;0.85;;;19.10;99.90;;;;;;5057163;28;20552;-90
2023/06/05 00:48:50;;;;;;;2.15;0.80;;;19.10;99.90;;;;;;5083387;28;20188;-89
2023/06/05 00:51:22;;;;;;;3.97;1.17;;;19.10;99.90;;;;;;5089099;28;20264;-90
2023/06/05 00:53:56;;;;;;;4.75;0.98;;;19.10;99.90;;;;;;5075536;28;20199;-91
2023/06/05 00:56:29;;;;;;;5.75;1.05;;;19.10;99.90;;;;;;5075474;28;20214;-90
2023/06/05 00:59:01;;;;;;;3.40;0.82;;;19.10;99.90;;;;;;5076973;28;20206;-91
2023/06/05 01:01:34;;;;;;;2.85;0.65;;;19.10;99.90;;;;;;5075119;28;20196;-90
2023/06/05 01:04:06;;;;;;;3.42;0.85;;;19.20;99.90;;;;;;5074411;28;20196;-91
2023/06/05 01:06:41;;;;;;;2.97;0.82;;;19.10;99.90;;;;;;5070265;28;20302;-91
2023/06/05 01:12:09;;;;;;;8.90;1.35;;;19.20;99.90;;;;;;5062269;28;20211;-90
2023/06/05 01:14:45;;;;;;;4.93;1.05;;;19.20;99.90;;;;;;5072112;28;20667;-90
2023/06/05 01:17:20;;;;;;;2.15;0.60;;;19.30;99.90;;;;;;5078233;28;20613;-90
2023/06/05 01:19:53;;;;;;;3.20;0.90;;;19.30;99.90;;;;;;5076288;28;20214;-91
2023/06/05 01:22:25;;;;;;;2.20;0.90;;;19.30;99.90;;;;;;5071344;28;20192;-91
2023/06/05 01:25:01;;;;;;;4.03;0.85;;;19.30;99.90;;;;;;5064223;28;20570;-90
2023/06/05 01:27:40;;;;;;;3.65;1.00;;;19.30;99.90;;;;;;5072735;28;20238;-90
2023/06/05 01:30:17;;;;;;;3.85;1.10;;;19.30;99.90;;;;;;5065678;28;20215;-90
2023/06/05 01:32:56;;;;;;;2.72;0.75;;;19.20;99.90;;;;;;5071308;28;20187;-90
2023/06/05 01:35:32;;;;;;;2.75;0.73;;;19.20;99.90;;;;;;5075646;28;20203;-90
2023/06/05 01:38:05;;;;;;;2.47;0.70;;;19.20;99.90;;;;;;5057026;28;20263;-91
2023/06/05 01:40:41;;;;;;;4.40;1.00;;;19.20;99.90;;;;;;5055867;28;20211;-91
2023/06/05 01:43:15;;;;;;;5.68;1.10;;;19.20;99.90;;;;;;5056744;28;20242;-92
2023/06/05 01:45:49;;;;;;;3.92;0.90;;;19.20;99.90;;;;;;5070237;28;20620;-89
2023/06/05 01:48:23;;;;;;;4.70;1.20;;;19.10;99.90;;;;;;5077427;28;20602;-90
2023/06/05 01:50:59;;;;;;;4.80;1.30;;;19.10;99.90;;;;;;5075114;28;20204;-90
2023/06/05 01:53:32;;;;;;;3.17;1.23;;;19.00;99.90;;;;;;5074464;28;20625;-90
2023/06/05 01:56:08;;;;;;;6.95;1.20;;;18.90;99.90;;;;;;5056991;28;20200;-90
2023/06/05 01:58:41;;;;;;;5.15;1.15;;;18.90;99.90;;;;;;5065392;28;20245;-91
2023/06/05 02:01:12;;;;;;;3.53;0.90;;;18.90;99.90;;;;;;5059107;28;20251;-90
2023/06/05 02:03:53;;;;;;;5.55;1.10;;;18.90;99.90;;;;;;5070990;28;20654;-90
2023/06/05 02:06:24;;;;;;;5.35;1.20;;;18.90;99.90;;;;;;5056892;28;20195;-90
2023/06/05 02:08:57;;;;;;;4.45;1.10;;;18.80;99.90;;;;;;5060898;28;20234;-91
2023/06/05 02:11:31;;;;;;;3.42;0.88;;;18.80;99.90;;;;;;5072875;28;20191;-90
2023/06/05 02:14:06;;;;;;;5.10;1.20;;;18.80;99.90;;;;;;5078178;28;20213;-89
2023/06/05 02:16:37;;;;;;;5.65;1.20;;;18.90;99.90;;;;;;5078556;28;20202;-90
2023/06/05 02:19:12;;;;;;;4.47;1.23;;;19.00;99.90;;;;;;5067602;28;20219;-90
2023/06/05 02:21:44;;;;;;;4.07;1.00;;;19.00;99.90;;;;;;5078974;28;20231;-91
2023/06/05 02:24:18;;;;;;;4.88;1.38;;;18.90;99.90;;;;;;5089706;28;20192;-91
2023/06/05 02:26:52;;;;;;;5.18;1.20;;;18.90;99.90;;;;;;5078537;28;20628;-91
2023/06/05 02:29:23;;;;;;;8.32;1.17;;;19.00;99.90;;;;;;5084936;28;20203;-91
2023/06/05 02:31:56;;;;;;;6.68;1.30;;;19.10;99.90;;;;;;5090739;28;20291;-92
2023/06/05 02:34:28;;;;;;;4.93;1.10;;;19.10;99.90;;;;;;5077646;28;20203;-92
2023/06/05 02:37:01;;;;;;;3.55;0.90;;;19.20;99.90;;;;;;5076908;28;20265;-91
2023/06/05 02:39:34;;;;;;;4.35;1.10;;;19.20;99.90;;;;;;5079769;28;20206;-90
2023/06/05 02:42:09;;;;;;;3.10;1.00;;;19.20;99.90;;;;;;5085046;28;20211;-89
2023/06/05 02:44:42;;;;;;;5.72;1.20;;;19.20;99.90;;;;;;5079515;28;20214;-88
2023/06/05 02:47:16;;;;;;;4.03;1.00;;;19.30;99.90;;;;;;5078247;28;20220;-90
2023/06/05 02:49:47;;;;;;;4.40;0.95;;;19.30;99.90;;;;;;5076473;28;20219;-90
2023/06/05 02:52:20;;;;;;;3.45;0.95;;;19.40;99.90;;;;;;5076946;28;20200;-90
2023/06/05 02:54:51;;;;;;;3.35;0.98;;;19.50;99.90;;;;;;5057854;28;20428;-91
2023/06/05 02:57:26;;;;;;;7.05;1.05;;;19.50;99.90;;;;;;5069411;28;20204;-90
2023/06/05 02:59:59;;;;;;;6.38;1.30;;;19.60;99.90;;;;;;5072769;28;20239;-90
2023/06/05 03:02:32;;;;;;;4.97;1.08;;;19.60;99.90;;;;;;5069533;28;20191;-90
2023/06/05 03:05:04;;;;;;;4.85;1.17;;;19.50;99.90;;;;;;5080043;28;20226;-91
2023/06/05 03:07:38;;;;;;;3.78;1.00;;;19.60;99.90;;;;;;5058406;28;20232;-90
2023/06/05 03:10:12;;;;;;;5.05;1.40;;;19.50;99.90;;;;;;5065971;28;20590;-91
2023/06/05 03:12:46;;;;;;;6.82;1.30;;;19.50;99.90;;;;;;5079435;28;20206;-90
2023/06/05 03:15:17;;;;;;;4.43;0.98;;;19.60;99.90;;;;;;5077267;28;20201;-91
2023/06/05 03:17:50;;;;;;;3.40;1.08;;;19.60;99.90;;;;;;5074794;28;20196;-90
2023/06/05 03:20:23;;;;;;;6.10;1.15;;;19.60;99.90;;;;;;5057555;28;20660;-91
2023/06/05 03:22:56;;;;;;;3.35;1.17;;;19.60;99.90;;;;;;5056270;28;20617;-91
2023/06/05 03:25:28;;;;;;;3.20;1.00;;;19.70;99.90;;;;;;5057334;28;20193;-90
2023/06/05 03:28:04;;;;;;;7.28;1.27;;;19.70;99.90;;;;;;5060368;28;20228;-89
2023/06/05 03:30:40;;;;;;;3.65;1.13;;;19.80;99.90;;;;;;5060537;28;20228;-88
2023/06/05 03:33:13;;;;;;;5.25;0.90;;;20.00;99.90;;;;;;5063386;28;20199;-89
2023/06/05 03:35:48;;;;;;;3.05;0.85;;;20.00;99.90;;;;;;5077725;28;20260;-89
2023/06/05 03:38:21;;;;;;;5.95;1.45;;;20.00;99.90;;;;;;5094908;28;20235;-90
2023/06/05 03:40:54;;;;;;;4.55;0.88;;;20.00;99.90;;;;;;5088647;28;20231;-90
2023/06/05 03:43:36;;;;;;;5.47;1.27;;;20.10;99.90;;;;;;5079385;28;20196;-91
2023/06/05 03:46:10;;;;;;;3.78;0.90;;;20.00;99.90;;;;;;5080231;28;20196;-90
2023/06/05 03:48:43;;;;;;;4.75;1.25;;;19.90;99.90;;;;;;5080438;28;20228;-89
2023/06/05 03:51:18;;;;;;;7.97;1.40;;;19.90;99.90;;;;;;5082858;28;20291;-91
2023/06/05 03:53:54;;;;;;;3.15;0.80;;;20.10;99.90;;;;;;5076702;28;20203;-90
2023/06/05 03:56:28;;;;;;;5.13;1.20;;;20.00;99.90;;;;;;5069426;28;20238;-91
2023/06/05 03:59:08;;;;;;;2.75;0.85;;;19.90;99.90;;;;;;5074184;28;20278;-91
2023/06/05 04:01:41;;;;;;;5.60;1.00;;;19.90;99.90;;;;;;5076414;28;20196;-91
2023/06/05 04:04:14;;;;;;;3.63;1.13;;;20.00;99.90;;;;;;5077294;28;20688;-90
2023/06/05 04:06:46;;;;;;;2.72;0.90;;;19.90;99.90;;;;;;5076439;28;20204;-91
2023/06/05 04:09:19;;;;;;;3.17;0.95;;;19.80;99.90;;;;;;5075982;28;20219;-91
2023/06/05 04:11:50;;;;;;;4.35;0.80;;;19.80;99.90;;;;;;5076563;28;20211;-91
2023/06/05 04:14:23;;;;;;;2.10;0.82;;;19.70;99.90;;;;;;5078066;28;20200;-91
2023/06/05 04:16:56;;;;;;;5.88;1.20;;;19.70;99.90;;;;;;5056182;28;20644;-91
2023/06/05 04:19:28;;;;;;;4.50;1.00;;;19.60;99.90;;;;;;5077390;28;20221;-91
2023/06/05 04:22:01;;;;;;;2.65;0.80;;;19.40;99.90;;;;;;5076468;28;20206;-90
2023/06/05 04:24:34;;;;;;;4.47;0.93;;;19.30;99.90;;;;;;5060637;28;20200;-90
2023/06/05 04:27:08;;;;;;;3.45;0.75;;;19.20;99.90;;;;;;5058126;28;20656;-91
2023/06/05 04:29:44;;;;;;;2.47;0.80;;;19.10;99.90;;;;;;5071373;28;20195;-90
2023/06/05 04:32:17;;;;;;;4.60;0.90;;;19.00;99.90;;;;;;5078057;28;20665;-91
2023/06/05 04:34:52;;;;;;;4.93;1.10;;;18.90;99.90;;;;;;5076852;28;20199;-89
2023/06/05 04:37:23;;;;;;;3.97;0.80;;;18.80;99.90;;;;;;5075866;28;20208;-91
2023/06/05 04:39:57;;;;;;;3.58;0.80;;;18.60;99.90;;;;;;5079061;28;20219;-91
2023/06/05 04:42:32;;;;;;;2.40;0.80;;;18.50;99.90;;;;;;5079260;28;20287;-90
2023/06/05 04:45:07;;;;;;;2.58;0.70;;;18.40;99.90;;;;;;5077615;28;20214;-91
2023/06/05 04:47:40;;;;;;;5.32;1.00;;;18.30;99.90;;;;;;5057879;28;20247;-90
2023/06/05 04:50:25;;;;;;;2.92;0.68;;;18.20;99.90;;;;;;5057988;28;20208;-90
2023/06/05 04:52:58;;;;;;;1.90;0.60;;;18.10;99.90;;;;;;5070811;28;20192;-91
2023/06/05 04:55:30;;;;;;;3.72;0.88;;;18.00;99.90;;;;;;5059403;28;20204;-91
2023/06/05 04:58:01;;;;;;;2.67;0.63;;;18.00;99.90;;;;;;5059025;28;20196;-90
2023/06/05 05:00:37;;;;;;;2.03;0.50;;;18.00;99.90;;;;;;5065702;28;20654;-90
2023/06/05 05:03:09;;;;;;;1.80;0.60;;;18.00;99.90;;;;;;5077367;28;20200;-91
2023/06/05 05:05:42;;;;;;;2.00;0.60;;;17.90;99.90;;;;;;5077449;28;20200;-91
2023/06/05 05:08:15;;;;;;;3.17;0.60;;;18.00;99.90;;;;;;5076598;28;20678;-90
2023/06/05 05:10:46;;;;;;;3.75;0.70;;;18.00;99.90;;;;;;5076009;28;20566;-91
2023/06/05 05:13:17;;;;;;;1.92;0.60;;;18.10;99.90;;;;;;5071832;28;20227;-91
2023/06/05 05:15:53;;;;;;;3.50;0.80;;;18.10;99.90;;;;;;5057669;28;20200;-91
2023/06/05 05:18:24;;;;;;;2.40;0.55;;;18.10;99.90;;;;;;5059334;28;20207;-90
2023/06/05 05:20:56;;;;;;;2.63;0.73;;;18.20;99.90;;;;;;5076289;28;20204;-90
2023/06/05 05:23:29;;;;;;;4.03;0.82;;;18.20;99.90;;;;;;5074736;28;20198;-91
2023/06/05 05:26:01;;;;;;;3.97;0.60;;;18.20;99.90;;;;;;5076486;28;20571;-90
2023/06/05 05:28:33;;;;;;;1.85;0.43;;;18.20;99.90;;;;;;5076299;28;20695;-91
2023/06/05 05:31:09;;;;;;;2.40;0.73;;;18.30;99.90;;;;;;5070108;28;20235;-91
2023/06/05 05:33:41;;;;;;;1.77;0.50;;;18.40;99.90;;;;;;5055791;28;20574;-90
2023/06/05 05:36:14;;;;;;;3.25;0.70;;;18.40;99.90;;;;;;5055365;28;20683;-91
2023/06/05 05:38:48;;;;;;;3.08;0.77;;;18.50;99.90;;;;;;5056900;28;20563;-91
2023/06/05 05:41:20;;;;;;;2.35;0.60;;;18.50;99.90;;;;;;5056844;28;20196;-91
2023/06/05 05:43:54;;;;;;;2.15;0.70;;;18.50;99.90;;;;;;5069109;28;20199;-91
2023/06/05 05:46:30;;;;;;;1.45;0.52;;;18.50;99.90;;;;;;5081728;28;20195;-90
2023/06/05 05:49:04;;;;;;;4.68;0.70;;;18.50;99.90;;;;;;5080997;28;20231;-90
2023/06/05 05:51:37;;;;;;;1.13;0.50;;;18.50;99.90;;;;;;5088791;28;20204;-90
2023/06/05 05:54:09;;;;;;;1.83;0.50;;;18.40;99.90;;;;;;5075150;28;20199;-91
2023/06/05 05:56:42;;;;;;;3.72;0.70;;;18.40;99.90;;;;;;5057740;28;20288;-90
2023/06/05 05:59:14;;;;;;;3.38;0.60;;;18.30;99.90;;;;;;5069621;28;20207;-91
2023/06/05 06:01:50;;;;;;;6.65;1.05;;;18.20;99.90;;;;;;5082415;28;20196;-91
2023/06/05 06:04:23;;;;;;;1.67;0.50;;;18.20;99.90;;;;;;5062481;28;20201;-90
2023/06/05 06:06:57;;;;;;;1.83;0.60;;;18.10;99.90;;;;;;5060449;28;20200;-90
2023/06/05 06:09:30;;;;;;;2.05;0.80;;;18.10;99.90;;;;;;5078270;28;20219;-91
2023/06/05 06:12:05;;;;;;;3.20;0.90;;;18.00;99.90;;;;;;5078797;28;20200;-91
2023/06/05 06:14:38;;;;;;;2.45;0.50;;;18.00;99.90;;;;;;5076687;28;20250;-90
2023/06/05 06:17:14;;;;;;;2.30;0.45;;;18.00;99.90;;;;;;5079674;28;20214;-91
2023/06/05 06:19:45;;;;;;;2.80;0.60;;;18.00;99.90;;;;;;5066664;28;20204;-91
2023/06/05 06:22:18;;;;;;;3.33;0.60;;;18.00;99.90;;;;;;5077377;28;20200;-91
2023/06/05 06:24:52;;;;;;;0.93;0.47;;;18.00;99.90;;;;;;5070410;28;20189;-92
2023/06/05 06:27:24;;;;;;;1.13;0.50;;;18.00;99.90;;;;;;5070914;28;20720;-90
2023/06/05 06:29:57;;;;;;;2.90;0.60;;;17.90;99.90;;;;;;5074620;28;20320;-89
2023/06/05 06:32:31;;;;;;;2.53;0.70;;;17.90;99.90;;;;;;5057556;28;20216;-91
2023/06/05 06:35:06;;;;;;;3.80;0.73;;;17.90;99.90;;;;;;5070199;28;20196;-91
2023/06/05 06:37:38;;;;;;;0.80;0.47;;;17.80;99.90;;;;;;5058669;28;20200;-90
2023/06/05 06:40:12;;;;;;;2.40;0.80;;;17.90;99.90;;;;;;5054166;28;20686;-89
2023/06/05 06:42:44;;;;;;;2.53;0.77;;;17.80;99.90;;;;;;5058713;28;20470;-91
2023/06/05 06:45:17;;;;;;;1.58;0.70;;;17.80;99.90;;;;;;5054998;28;20678;-91
2023/06/05 06:47:53;;;;;;;3.05;0.88;;;17.80;99.90;;;;;;5055309;28;20204;-90
2023/06/05 06:50:24;;;;;;;4.25;1.05;;;17.80;99.90;;;;;;5074015;28;20204;-91
2023/06/05 06:52:57;;;;;;;2.78;1.10;;;17.70;99.90;;;;;;5071179;28;20204;-91
2023/06/05 06:55:28;;;;;;;5.22;1.38;;;17.70;99.90;;;;;;5074528;28;20671;-90
2023/06/05 06:58:00;;;;;;;3.90;1.50;;;17.70;99.90;;;;;;5076834;28;20211;-90
2023/06/05 07:00:32;;;;;;;2.47;1.00;;;17.70;99.90;;;;;;5077380;28;20196;-90
2023/06/05 07:03:07;;;;;;;2.60;1.30;;;17.70;99.90;;;;;;5069311;28;20212;-91
2023/06/05 07:05:40;;;;;;;2.08;1.20;;;17.60;99.90;;;;;;5076282;28;20198;-89
2023/06/05 07:08:12;;;;;;;2.35;1.40;;;17.60;99.90;;;;;;5076498;28;20287;-90
2023/06/05 07:10:45;;;;;;;2.25;1.25;;;17.60;99.90;;;;;;5077398;28;20200;-90
2023/06/05 07:13:16;;;;;;;3.33;1.20;;;17.60;99.90;;;;;;5076467;28;20198;-90
2023/06/05 07:15:47;;;;;;;4.65;1.00;;;17.60;99.90;;;;;;5076141;28;20206;-91
2023/06/05 07:18:24;;;;;;;3.67;1.10;;;17.50;99.90;;;;;;5075921;28;20192;-90
2023/06/05 07:20:56;;;;;;;2.05;0.90;;;17.60;99.90;;;;;;5055351;28;20308;-90
2023/06/05 07:23:27;;;;;;;3.70;1.10;;;17.60;99.90;;;;;;5055458;28;20204;-90
2023/06/05 07:25:59;;;;;;;1.85;1.00;;;17.60;99.90;;;;;;5062826;28;20283;-92
2023/06/05 07:28:31;;;;;;;2.00;0.75;;;17.60;99.90;;;;;;5056648;28;20216;-91
2023/06/05 07:31:04;;;;;;;2.25;0.70;;;17.60;99.90;;;;;;5055202;28;20734;-90
2023/06/05 07:33:39;;;;;;;1.58;0.85;;;17.60;99.90;;;;;;5075044;28;20192;-92
2023/06/05 07:36:11;;;;;;;1.88;0.73;;;17.60;99.90;;;;;;5075673;28;20195;-90
2023/06/05 07:38:44;;;;;;;2.67;0.85;;;17.60;99.90;;;;;;5062752;28;20212;-90
2023/06/05 07:41:16;;;;;;;3.00;1.00;;;17.70;99.90;;;;;;5072452;28;20211;-91
2023/06/05 07:43:49;;;;;;;2.53;0.98;;;17.70;99.90;;;;;;5074981;28;20192;-90
2023/06/05 07:46:23;;;;;;;2.05;0.68;;;17.70;99.90;;;;;;5073042;28;20222;-90
2023/06/05 07:48:57;;;;;;;4.03;0.85;;;17.70;99.90;;;;;;5062158;28;20636;-91
2023/06/05 07:51:28;;;;;;;6.18;1.35;;;17.70;99.90;;;;;;5061028;28;20196;-90
2023/06/05 07:54:00;;;;;;;3.30;0.90;;;17.70;99.90;;;;;;5059014;28;20215;-90
2023/06/05 07:56:35;;;;;;;1.95;0.80;;;17.70;99.90;;;;;;5058888;28;20204;-92
2023/06/05 07:59:06;;;;;;;7.15;1.00;;;17.60;99.90;;;;;;5060932;28;20337;-90
2023/06/05 08:01:39;;;;;;;4.38;0.90;;;17.60;99.90;;;;;;5075672;28;20582;-92
2023/06/05 08:04:15;;;;;;;3.42;0.80;;;17.60;99.90;;;;;;5070321;28;20200;-91
2023/06/05 08:06:46;;;;;;;3.20;0.93;;;17.60;99.90;;;;;;5055101;28;20196;-91
2023/06/05 08:09:18;;;;;;;4.03;1.20;;;17.60;99.90;;;;;;5064798;28;20223;-90
2023/06/05 08:11:51;;;;;;;3.35;0.70;;;17.60;99.90;;;;;;5075415;28;20575;-90
2023/06/05 08:14:23;;;;;;;2.75;0.90;;;17.60;99.90;;;;;;5074596;28;20207;-91
2023/06/05 08:16:55;;;;;;;1.52;0.60;;;17.60;99.90;;;;;;5074698;28;20576;-91
2023/06/05 08:19:30;;;;;;;2.30;0.70;;;17.60;99.90;;;;;;5074417;28;20667;-89
2023/06/05 08:22:01;;;;;;;1.75;0.50;;;17.60;99.90;;;;;;5073856;28;20204;-90
2023/06/05 08:24:33;;;;;;;1.25;0.50;;;17.60;99.90;;;;;;5086677;28;20195;-87
2023/06/05 08:27:05;;;;;;;3.17;0.50;;;17.50;99.90;;;;;;5091138;28;20283;-87
2023/06/05 08:29:36;;;;;;;3.55;0.70;;;17.60;99.90;;;;;;5090458;28;20227;-87
2023/06/05 08:32:09;;;;;;;2.78;0.90;;;17.60;99.90;;;;;;5081192;28;20235;-90
2023/06/05 08:34:48;;;;;;;2.55;0.80;;;17.60;99.90;;;;;;5074565;28;20216;-90
2023/06/05 08:37:20;;;;;;;2.05;0.85;;;17.60;99.90;;;;;;5074869;28;20196;-90
2023/06/05 08:39:53;;;;;;;2.10;0.80;;;17.60;99.90;;;;;;5074858;28;20200;-90
2023/06/05 08:42:28;;;;;;;3.05;1.10;;;17.60;99.90;;;;;;5085181;28;20199;-91
2023/06/05 08:45:00;;;;;;;3.90;0.82;;;17.60;99.90;;;;;;5085800;28;20195;-90
2023/06/05 08:47:34;;;;;;;1.65;0.60;;;17.60;99.90;;;;;;5096066;28;20219;-91
2023/06/05 08:50:12;;;;;;;1.17;0.50;;;17.60;99.90;;;;;;5090670;28;20227;-91
2023/06/05 08:52:45;;;;;;;2.95;0.63;;;17.60;99.90;;;;;;5074456;28;20689;-90
2023/06/05 08:55:17;;;;;;;2.67;0.90;;;17.60;99.90;;;;;;5073377;28;20659;-90
2023/06/05 08:57:50;;;;;;;2.22;0.88;;;17.60;99.90;;;;;;5074250;28;20206;-90
2023/06/05 09:00:23;;;;;;;2.58;0.82;;;17.60;99.90;;;;;;5075084;28;20192;-90
2023/06/05 09:02:56;;;;;;;2.28;0.93;;;17.60;99.90;;;;;;5075815;28;20181;-90
2023/06/05 09:05:31;;;;;;;0.85;0.77;;;17.60;99.90;;;;;;5075629;28;20200;-90
2023/06/05 09:08:03;;;;;;;1.50;0.80;;;17.60;99.90;;;;;;5075116;28;20227;-91
2023/06/05 09:10:36;;;;;;;1.20;0.85;;;17.60;99.90;;;;;;5076991;28;20212;-91
2023/06/05 09:13:09;;;;;;;3.10;1.20;;;17.60;99.90;;;;;;5075967;28;20199;-91
2023/06/05 09:15:42;;;;;;;2.22;1.13;;;17.60;99.90;;;;;;5074076;28;20196;-90
2023/06/05 09:18:16;;;;;;;2.42;1.20;;;17.60;99.90;;;;;;5075439;28;20214;-90
2023/06/05 09:20:50;;;;;;;2.95;1.33;;;17.70;99.90;;;;;;5074838;28;20201;-89
2023/06/05 09:23:29;;;;;;;2.33;1.35;;;17.60;99.90;;;;;;5073496;28;20195;-89
2023/06/05 09:26:03;;;;;;;3.05;1.08;;;17.70;99.90;;;;;;5055459;28;20219;-90
2023/06/05 09:28:34;;;;;;;1.40;0.80;;;17.60;99.90;;;;;;5055314;28;20207;-89
2023/06/05 09:31:07;;;;;;;2.35;0.80;;;17.70;99.90;;;;;;5058948;28;20239;-89
2023/06/05 09:33:38;;;;;;;2.28;0.68;;;17.70;99.90;;;;;;5074710;28;20191;-90
2023/06/05 09:36:14;;;;;;;1.33;0.80;;;17.70;99.90;;;;;;5056209;28;20551;-90
2023/06/05 09:38:47;;;;;;;2.53;0.70;;;17.70;99.90;;;;;;5055733;28;20204;-90
2023/06/05 09:41:18;;;;;;;2.60;0.50;;;17.70;99.90;;;;;;5062311;28;20545;-91
2023/06/05 09:43:52;;;;;;;1.85;0.60;;;17.70;99.90;;;;;;5074797;28;20188;-91
2023/06/05 09:46:24;;;;;;;0.77;0.60;;;17.70;99.90;;;;;;5074111;28;20203;-90
2023/06/05 09:49:02;;;;;;;0.90;0.50;;;17.70;99.90;;;;;;5077463;28;20651;-90
2023/06/05 09:51:37;;;;;;;1.75;0.60;;;17.70;99.90;;;;;;5077053;28;20218;-91
2023/06/05 09:54:10;;;;;;;0.80;0.43;;;17.70;99.90;;;;;;5077283;28;20204;-91
2023/06/05 09:56:45;;;;;;;1.83;0.77;;;17.70;99.90;;;;;;5084635;28;20207;-90
2023/06/05 09:59:21;;;;;;;2.25;0.80;;;17.70;99.90;;;;;;5078019;28;20207;-90
2023/06/05 10:01:55;;;;;;;2.42;0.93;;;17.70;99.90;;;;;;5077516;28;20561;-91
2023/06/05 10:04:30;;;;;;;1.92;0.70;;;17.70;99.90;;;;;;5078584;28;20249;-90
2023/06/05 10:07:07;;;;;;;2.35;0.70;;;17.70;99.90;;;;;;5074655;28;20206;-91
2023/06/05 10:09:41;;;;;;;1.55;0.88;;;17.70;99.90;;;;;;5073102;28;20227;-90
2023/06/05 10:12:14;;;;;;;2.13;0.90;;;17.70;99.90;;;;;;5074889;28;20200;-90
2023/06/05 10:14:47;;;;;;;1.80;0.93;;;17.80;99.90;;;;;;5074169;28;20207;-90
2023/06/05 10:17:19;;;;;;;1.75;1.27;;;17.80;99.90;;;;;;5074595;28;20207;-90
2023/06/05 10:19:51;;;;;;;1.85;0.80;;;17.80;99.90;;;;;;5073882;28;20656;-90
2023/06/05 10:22:28;;;;;;;1.42;0.93;;;17.80;99.90;;;;;;5073940;28;20199;-89
2023/06/05 10:25:11;;;;;;;1.52;0.85;;;17.80;99.90;;;;;;5074128;28;20199;-90
2023/06/05 10:28:13;;;;;;;2.00;0.90;;;17.80;99.90;;;;;;5074655;28;20208;-90
2023/06/05 10:31:16;;;;;;;1.90;0.98;;;17.80;99.90;;;;;;5063934;28;20243;-91
2023/06/05 10:34:04;;;;;;;2.83;1.30;;;17.80;99.90;;;;;;5076023;28;20295;-91
2023/06/05 10:37:21;;;;;;;2.20;1.58;;;17.80;99.90;;;;;;5077597;28;20211;-90
2023/06/05 10:39:59;;;;;;;2.05;1.17;;;17.80;99.90;;;;;;5076855;28;20192;-89
2023/06/05 10:42:31;;;;;;;2.03;1.30;;;17.80;99.90;;;;;;5077293;28;20605;-90
2023/06/05 10:45:03;;;;;;;2.05;1.13;;;17.80;99.90;;;;;;5077499;28;20659;-89
2023/06/05 10:47:56;;;;;;;2.90;1.40;;;17.90;99.90;;;;;;5076915;28;20239;-90
2023/06/05 10:50:31;;;;;;;2.95;1.20;;;17.80;99.90;;;;;;5077300;28;20227;-90
2023/06/05 10:53:03;;;;;;;3.10;1.30;;;17.80;99.90;;;;;;5077212;28;20200;-90
2023/06/05 10:55:50;;;;;;;2.13;1.30;;;17.80;99.90;;;;;;5077536;28;20282;-90
2023/06/05 10:58:23;;;;;;;3.88;1.60;;;17.80;99.90;;;;;;5066850;28;20278;-90
2023/06/05 11:08:42;;;;;;;2.40;1.95;;;17.80;99.90;;;;;;5077221;28;20212;-88
2023/06/05 11:15:02;;;;;;;3.30;1.65;;;17.80;99.90;;;;;;5079396;28;20177;-90
2023/06/05 11:22:07;;;;;;;2.85;1.50;;;17.80;99.90;;;;;;5033892;28;20174;-88
2023/06/05 11:25:16;;;;;;;2.42;1.27;;;17.70;99.90;;;;;;5037725;28;20202;-89
2023/06/05 11:47:08;;;;;;;2.38;0.90;;;17.80;99.90;;;;;;5029158;28;20200;-87
2023/06/05 11:49:57;;;;;;;1.98;1.20;;;17.80;99.90;;;;;;5018971;28;20241;-90
2023/06/05 11:56:16;;;;;;;2.88;1.20;;;17.80;99.90;;;;;;5031878;28;20209;-90
2023/06/05 11:58:54;;;;;;;2.15;0.90;;;17.80;99.90;;;;;;5067959;28;20223;-88
2023/06/05 12:01:40;;;;;;;2.13;0.85;;;17.80;99.90;;;;;;5072713;28;20193;-89
2023/06/05 12:04:19;;;;;;;2.33;0.82;;;17.80;99.90;;;;;;5073739;28;20184;-85
2023/06/05 12:16:09;;;;;;;2.08;0.85;;;17.80;99.90;;;;;;5084809;28;20242;-89
2023/06/05 12:24:55;;;;;;;2.58;1.08;;;17.80;99.90;;;;;;5090075;28;20196;-92
2023/06/05 12:27:56;;;;;;;2.70;1.10;;;17.80;99.90;;;;;;5070937;28;20180;-89
2023/06/05 12:30:31;;;;;;;2.60;1.05;;;17.80;99.90;;;;;;5070138;28;20247;-91
2023/06/05 12:33:09;;;;;;;3.20;0.95;;;17.80;99.90;;;;;;5067004;28;20196;-91
2023/06/05 12:35:46;;;;;;;1.15;0.88;;;17.80;99.90;;;;;;5072736;28;20227;-88
2023/06/05 12:38:30;;;;;;;2.50;0.93;;;17.80;99.90;;;;;;5074453;28;20235;-87
2023/06/05 12:53:21;;;;;;;3.80;1.60;;;17.70;99.90;;;;;;5091703;28;20192;-88
2023/06/05 12:55:57;;;;;;;3.00;1.70;;;17.60;99.90;;;;;;5089836;28;20270;-90
2023/06/05 12:58:41;;;;;;;3.65;1.45;;;17.60;99.90;;;;;;5089293;28;20201;-90
2023/06/05 13:01:15;;;;;;;2.95;1.50;;;17.60;99.90;;;;;;5081437;28;20192;-91
2023/06/05 13:03:50;;;;;;;4.18;1.77;;;17.60;99.90;;;;;;5076274;28;20318;-91
2023/06/05 13:06:21;;;;;;;3.63;1.60;;;17.60;99.90;;;;;;5075778;28;20211;-90
2023/06/05 13:08:52;;;;;;;3.20;1.30;;;17.60;99.90;;;;;;5076500;28;20218;-91
2023/06/05 13:11:25;;;;;;;3.40;1.33;;;17.50;99.90;;;;;;5075917;28;20285;-90
2023/06/05 13:13:57;;;;;;;2.15;1.30;;;17.50;99.90;;;;;;5075288;28;20336;-91
2023/06/05 13:16:28;;;;;;;3.92;1.40;;;17.50;99.90;;;;;;5076006;28;20578;-90
2023/06/05 13:19:02;;;;;;;3.88;1.50;;;17.50;99.90;;;;;;5075277;28;20202;-90
2023/06/05 13:21:34;;;;;;;1.58;1.30;;;17.40;99.90;;;;;;5074647;28;20206;-90
2023/06/05 13:24:07;;;;;;;3.90;1.38;;;17.50;99.90;;;;;;5073415;28;20200;-90
2023/06/05 13:26:41;;;;;;;3.03;1.30;;;17.50;99.90;;;;;;5079811;28;20184;-89
2023/06/05 13:29:14;;;;;;;3.05;1.40;;;17.40;99.90;;;;;;5078506;28;20203;-90
2023/06/05 13:31:45;;;;;;;1.95;1.10;;;17.40;99.90;;;;;;5077046;28;20235;-90
2023/06/05 13:34:22;;;;;;;2.95;1.15;;;17.40;99.90;;;;;;5074886;28;20576;-90
2023/06/05 13:36:53;;;;;;;3.63;1.60;;;17.40;99.90;;;;;;5075335;28;20207;-90
2023/06/05 13:39:24;;;;;;;3.70;1.25;;;17.40;99.90;;;;;;5075345;28;20580;-91
2023/06/05 13:41:57;;;;;;;2.70;1.40;;;17.40;99.90;;;;;;5092099;28;20207;-89
2023/06/05 13:44:28;;;;;;;2.15;0.98;;;17.50;99.90;;;;;;5092481;28;20210;-91
2023/06/05 13:47:02;;;;;;;2.47;0.80;;;17.50;99.90;;;;;;5078567;28;20203;-91
2023/06/05 13:49:38;;;;;;;1.75;0.73;;;17.40;99.90;;;;;;5076201;28;20286;-91
2023/06/05 13:52:11;;;;;;;2.47;0.85;;;17.40;99.90;;;;;;5076169;28;20223;-92
2023/06/05 13:54:43;;;;;;;2.78;1.08;;;17.40;99.90;;;;;;5075045;28;20195;-90
2023/06/05 13:57:16;;;;;;;2.25;0.80;;;17.50;99.90;;;;;;5076765;28;20196;-91
2023/06/05 13:59:49;;;;;;;2.40;1.20;;;17.50;99.90;;;;;;5077706;28;20225;-91
2023/06/05 14:02:22;;;;;;;1.13;0.80;;;17.50;99.90;;;;;;5075286;28;20570;-91
2023/06/05 14:04:57;;;;;;;2.47;0.98;;;17.50;99.90;;;;;;5077379;28;20195;-91
2023/06/05 14:07:30;;;;;;;2.22;0.98;;;17.50;99.90;;;;;;5076400;28;20223;-91
2023/06/05 14:10:02;;;;;;;2.35;0.90;;;17.50;99.90;;;;;;5079829;28;20196;-91
2023/06/05 14:12:35;;;;;;;2.28;1.05;;;17.50;99.90;;;;;;5087806;28;20203;-91
2023/06/05 14:15:10;;;;;;;3.85;1.20;;;17.50;99.90;;;;;;5077947;28;20716;-90
2023/06/05 14:17:48;;;;;;;3.75;0.90;;;17.50;99.90;;;;;;5082739;28;20199;-91
2023/06/05 14:20:23;;;;;;;3.33;1.40;;;17.50;99.90;;;;;;5083313;28;20271;-90
2023/06/05 14:22:55;;;;;;;5.00;1.40;;;17.60;99.90;;;;;;5078574;28;20210;-90
2023/06/05 14:25:29;;;;;;;2.88;1.10;;;17.60;99.90;;;;;;5078410;28;20723;-90
2023/06/05 14:28:01;;;;;;;1.80;0.90;;;17.60;99.90;;;;;;5078825;28;20187;-90
2023/06/05 14:30:34;;;;;;;4.72;1.58;;;17.50;99.90;;;;;;5093239;28;20287;-90
2023/06/05 14:33:06;;;;;;;3.10;1.30;;;17.50;99.90;;;;;;5080446;28;20238;-90